Meteorológiai információk azoknak akik tudják olvasni.

METAR = LHBP 211730Z 26004KT CAVOK 07/01 Q1024 NOSIG

9 órás TAF = TAF TAF LHBP 242330Z 2423/2424 30008KT CAVOK BECMG 2506/2509 24010KT OVC030 TEMPO 2509/2515 24015G25KT 8000 -RA BKN013 OVC025 BECMG 2515/2518 30008KT CAVOK

24 órás TAF = TAF TAF LHBP 211715Z 2118/2218 27008KT CAVOK TEMPO 2120/2205 RA OVC020 BECMG 2202/2204 31014KT TEMPO 2211/2214 -RA BKN015 OVC030 BECMG 2211/2213 05021G32KT BECMG 2216/2218 05016KT

ÁLLOMÁS.................... LHBP
ÉSZLELÉS................... Thu Feb 21, 18:30 CET
MOST....................... Thu Feb 21, 18:41 CET
IDŐ........................ 11 perccel ezelőtt
SZÉL....................... NY irányból 4 csomó
LÁTÁSTÁVOLSÁG.............. 10 km vagy több
FELHŐZET................... jelentős felhőzet nincs
HŐMÉRSÉKLET................ 45°F (7°C)
HŐÉRZET.................... 43°F (6°C)
HARMATPONT................. 34°F (1°C)
PÁRATARTALOM............... 66%
LÉGNYOMÁS.................. 1024 hPa (30.24 in Hg)

További információ LHBP állomásról

Meteor információ kérése:        állomásról.    

 

www.tothgeza.hu

 

English version
Copyright © 2003-2019 Tóth Géza Minden jog fenntartva.